sensor_id;sensor_type;location;lat;lon;timestamp;pressure;altitude;pressure_sealevel;temperature;humidity
53522;BME280;39398;48.382;9.802;2024-01-15T00:04:23;92660.78;;;-4.44;76.46
53522;BME280;39398;48.382;9.802;2024-01-15T00:09:26;92668.69;;;-4.47;76.57
53522;BME280;39398;48.382;9.802;2024-01-15T00:14:28;92660.50;;;-4.41;75.77
53522;BME280;39398;48.382;9.802;2024-01-15T00:19:29;92656.56;;;-4.35;75.66
53522;BME280;39398;48.382;9.802;2024-01-15T00:24:32;92653.84;;;-4.42;76.26
53522;BME280;39398;48.382;9.802;2024-01-15T00:29:34;92662.09;;;-4.40;76.00
53522;BME280;39398;48.382;9.802;2024-01-15T00:34:35;92662.09;;;-4.40;75.94
53522;BME280;39398;48.382;9.802;2024-01-15T00:39:39;92658.63;;;-4.39;76.49
53522;BME280;39398;48.382;9.802;2024-01-15T00:44:41;92656.59;;;-4.17;76.42
53522;BME280;39398;48.382;9.802;2024-01-15T00:49:43;92659.22;;;-4.09;76.53
53522;BME280;39398;48.382;9.802;2024-01-15T00:54:46;92667.22;;;-4.04;76.39
53522;BME280;39398;48.382;9.802;2024-01-15T00:59:48;92675.47;;;-4.02;76.27
53522;BME280;39398;48.382;9.802;2024-01-15T01:04:50;92671.69;;;-3.98;76.09
53522;BME280;39398;48.382;9.802;2024-01-15T01:09:53;92673.00;;;-3.94;75.96
53522;BME280;39398;48.382;9.802;2024-01-15T01:14:54;92676.19;;;-3.92;76.03
53522;BME280;39398;48.382;9.802;2024-01-15T01:19:56;92661.47;;;-3.89;76.33
53522;BME280;39398;48.382;9.802;2024-01-15T01:24:59;92668.00;;;-3.86;76.63
53522;BME280;39398;48.382;9.802;2024-01-15T01:30:01;92673.22;;;-3.88;76.41
53522;BME280;39398;48.382;9.802;2024-01-15T01:35:03;92669.44;;;-3.83;76.53
53522;BME280;39398;48.382;9.802;2024-01-15T01:40:08;92675.97;;;-3.81;77.10
53522;BME280;39398;48.382;9.802;2024-01-15T01:45:10;92675.31;;;-3.83;76.55
53522;BME280;39398;48.382;9.802;2024-01-15T01:50:12;92667.03;;;-3.85;77.49
53522;BME280;39398;48.382;9.802;2024-01-15T01:55:15;92672.13;;;-3.85;77.66
53522;BME280;39398;48.382;9.802;2024-01-15T02:00:17;92669.28;;;-3.82;78.37
53522;BME280;39398;48.382;9.802;2024-01-15T02:05:19;92665.81;;;-3.81;77.20
53522;BME280;39398;48.382;9.802;2024-01-15T02:10:22;92667.56;;;-3.81;77.40
53522;BME280;39398;48.382;9.802;2024-01-15T02:15:24;92659.28;;;-3.83;77.86
53522;BME280;39398;48.382;9.802;2024-01-15T02:20:26;92656.13;;;-3.85;77.50
53522;BME280;39398;48.382;9.802;2024-01-15T02:25:29;92663.56;;;-3.84;77.36
53522;BME280;39398;48.382;9.802;2024-01-15T02:30:31;92664.22;;;-3.82;77.16
53522;BME280;39398;48.382;9.802;2024-01-15T02:35:33;92658.56;;;-3.76;76.81
53522;BME280;39398;48.382;9.802;2024-01-15T02:40:38;92662.69;;;-3.75;76.66
53522;BME280;39398;48.382;9.802;2024-01-15T02:45:40;92655.44;;;-3.70;76.78
53522;BME280;39398;48.382;9.802;2024-01-15T02:50:42;92656.72;;;-3.66;75.96
53522;BME280;39398;48.382;9.802;2024-01-15T02:55:45;92650.56;;;-3.63;76.11
53522;BME280;39398;48.382;9.802;2024-01-15T03:00:46;92654.56;;;-3.61;76.00
53522;BME280;39398;48.382;9.802;2024-01-15T03:05:48;92655.78;;;-3.65;75.78
53522;BME280;39398;48.382;9.802;2024-01-15T03:10:51;92652.44;;;-3.65;75.85
53522;BME280;39398;48.382;9.802;2024-01-15T03:15:52;92658.59;;;-3.68;75.36
53522;BME280;39398;48.382;9.802;2024-01-15T03:20:54;92659.50;;;-3.77;75.47
53522;BME280;39398;48.382;9.802;2024-01-15T03:25:57;92665.94;;;-3.82;75.16
53522;BME280;39398;48.382;9.802;2024-01-15T03:30:58;92655.59;;;-3.89;74.97
53522;BME280;39398;48.382;9.802;2024-01-15T03:36:00;92651.75;;;-3.93;75.23
53522;BME280;39398;48.382;9.802;2024-01-15T03:41:03;92650.81;;;-3.92;74.91
53522;BME280;39398;48.382;9.802;2024-01-15T03:46:05;92642.81;;;-3.97;74.88
53522;BME280;39398;48.382;9.802;2024-01-15T03:51:06;92646.91;;;-4.04;75.10
53522;BME280;39398;48.382;9.802;2024-01-15T03:56:09;92647.84;;;-4.05;75.19
53522;BME280;39398;48.382;9.802;2024-01-15T04:01:11;92628.78;;;-4.09;74.88
53522;BME280;39398;48.382;9.802;2024-01-15T04:06:13;92629.72;;;-4.10;74.85
53522;BME280;39398;48.382;9.802;2024-01-15T04:11:16;92625.88;;;-4.14;74.15
53522;BME280;39398;48.382;9.802;2024-01-15T04:16:18;92619.00;;;-4.04;73.70
53522;BME280;39398;48.382;9.802;2024-01-15T04:21:19;92613.97;;;-3.96;73.17
53522;BME280;39398;48.382;9.802;2024-01-15T04:26:22;92625.28;;;-3.91;73.43
53522;BME280;39398;48.382;9.802;2024-01-15T04:31:25;92625.41;;;-3.74;72.99
53522;BME280;39398;48.382;9.802;2024-01-15T04:36:27;92619.56;;;-3.67;73.19
53522;BME280;39398;48.382;9.802;2024-01-15T04:41:30;92612.72;;;-3.48;72.38
53522;BME280;39398;48.382;9.802;2024-01-15T04:46:31;92615.31;;;-3.40;71.98
53522;BME280;39398;48.382;9.802;2024-01-15T04:51:34;92616.91;;;-3.39;72.76
53522;BME280;39398;48.382;9.802;2024-01-15T04:56:37;92607.44;;;-3.29;73.87
53522;BME280;39398;48.382;9.802;2024-01-15T05:01:38;92610.47;;;-3.26;75.10
53522;BME280;39398;48.382;9.802;2024-01-15T05:06:40;92615.72;;;-3.27;75.08
53522;BME280;39398;48.382;9.802;2024-01-15T05:11:43;92620.50;;;-3.24;75.21
53522;BME280;39398;48.382;9.802;2024-01-15T05:16:46;92614.78;;;-3.18;74.87
53522;BME280;39398;48.382;9.802;2024-01-15T05:21:48;92598.78;;;-3.19;75.55
53522;BME280;39398;48.382;9.802;2024-01-15T05:26:51;92618.31;;;-3.19;76.15
53522;BME280;39398;48.382;9.802;2024-01-15T05:31:53;92604.94;;;-3.21;77.72
53522;BME280;39398;48.382;9.802;2024-01-15T05:36:55;92611.94;;;-3.23;77.52
53522;BME280;39398;48.382;9.802;2024-01-15T05:41:58;92610.69;;;-3.19;78.00
53522;BME280;39398;48.382;9.802;2024-01-15T05:47:00;92628.91;;;-3.24;78.46
53522;BME280;39398;48.382;9.802;2024-01-15T05:52:01;92624.63;;;-3.23;78.27
53522;BME280;39398;48.382;9.802;2024-01-15T05:57:04;92618.09;;;-3.26;77.95
53522;BME280;39398;48.382;9.802;2024-01-15T06:02:06;92616.00;;;-3.30;78.23
53522;BME280;39398;48.382;9.802;2024-01-15T06:07:07;92622.09;;;-3.23;77.40
53522;BME280;39398;48.382;9.802;2024-01-15T06:12:10;92609.03;;;-3.28;77.51
53522;BME280;39398;48.382;9.802;2024-01-15T06:17:12;92621.09;;;-3.30;77.15
53522;BME280;39398;48.382;9.802;2024-01-15T06:22:14;92611.13;;;-3.24;76.72
53522;BME280;39398;48.382;9.802;2024-01-15T06:27:17;92599.22;;;-3.23;77.05
53522;BME280;39398;48.382;9.802;2024-01-15T06:32:18;92572.50;;;-3.27;76.70
53522;BME280;39398;48.382;9.802;2024-01-15T06:37:20;92581.53;;;-3.33;76.92
53522;BME280;39398;48.382;9.802;2024-01-15T06:42:23;92594.19;;;-3.41;76.89
53522;BME280;39398;48.382;9.802;2024-01-15T06:47:24;92590.22;;;-3.43;77.28
53522;BME280;39398;48.382;9.802;2024-01-15T06:52:26;92598.47;;;-3.41;77.57
53522;BME280;39398;48.382;9.802;2024-01-15T06:57:29;92598.47;;;-3.41;77.40
53522;BME280;39398;48.382;9.802;2024-01-15T07:02:31;92587.06;;;-3.37;77.80
53522;BME280;39398;48.382;9.802;2024-01-15T07:07:32;92587.72;;;-3.35;77.02
53522;BME280;39398;48.382;9.802;2024-01-15T07:12:35;92594.38;;;-3.34;76.46
53522;BME280;39398;48.382;9.802;2024-01-15T07:17:37;92590.59;;;-3.30;75.42
53522;BME280;39398;48.382;9.802;2024-01-15T07:22:39;92590.59;;;-3.30;75.54
53522;BME280;39398;48.382;9.802;2024-01-15T07:27:42;92591.25;;;-3.28;75.37
53522;BME280;39398;48.382;9.802;2024-01-15T07:32:43;92584.75;;;-3.23;75.52
53522;BME280;39398;48.382;9.802;2024-01-15T07:37:45;92578.59;;;-3.20;75.59
53522;BME280;39398;48.382;9.802;2024-01-15T07:42:48;92567.47;;;-3.19;74.59
53522;BME280;39398;48.382;9.802;2024-01-15T07:47:49;92564.13;;;-3.20;74.29
53522;BME280;39398;48.382;9.802;2024-01-15T07:52:51;92570.03;;;-3.11;74.03
53522;BME280;39398;48.382;9.802;2024-01-15T07:57:54;92563.06;;;-3.09;73.74
53522;BME280;39398;48.382;9.802;2024-01-15T08:03:07;92573.44;;;-3.02;73.10
53522;BME280;39398;48.382;9.802;2024-01-15T08:08:08;92568.50;;;-3.04;72.77
53522;BME280;39398;48.382;9.802;2024-01-15T08:13:11;92580.28;;;-2.95;73.13
53522;BME280;39398;48.382;9.802;2024-01-15T08:18:13;92576.47;;;-2.91;71.84
53522;BME280;39398;48.382;9.802;2024-01-15T08:23:15;92575.84;;;-2.85;72.07
53522;BME280;39398;48.382;9.802;2024-01-15T08:28:18;92561.88;;;-2.81;71.85
53522;BME280;39398;48.382;9.802;2024-01-15T08:33:19;92567.94;;;-2.73;71.46
53522;BME280;39398;48.382;9.802;2024-01-15T08:38:23;92569.91;;;-2.59;71.28
53522;BME280;39398;48.382;9.802;2024-01-15T08:43:26;92568.63;;;-2.55;70.45
53522;BME280;39398;48.382;9.802;2024-01-15T08:48:27;92564.03;;;-2.52;70.20
53522;BME280;39398;48.382;9.802;2024-01-15T08:53:29;92578.66;;;-2.54;69.77
53522;BME280;39398;48.382;9.802;2024-01-15T08:58:32;92551.78;;;-2.48;70.00
53522;BME280;39398;48.382;9.802;2024-01-15T09:03:34;92555.47;;;-2.42;69.12
53522;BME280;39398;48.382;9.802;2024-01-15T09:08:36;92549.09;;;-2.14;68.79
53522;BME280;39398;48.382;9.802;2024-01-15T09:13:38;92545.13;;;-1.76;67.34
53522;BME280;39398;48.382;9.802;2024-01-15T09:18:40;92541.25;;;-1.48;66.00
53522;BME280;39398;48.382;9.802;2024-01-15T09:23:42;92543.53;;;-1.14;65.72
53522;BME280;39398;48.382;9.802;2024-01-15T09:28:45;92545.88;;;-0.96;64.19
53522;BME280;39398;48.382;9.802;2024-01-15T09:33:47;92536.44;;;-0.56;64.41
53522;BME280;39398;48.382;9.802;2024-01-15T09:38:49;92544.97;;;-0.41;63.13
53522;BME280;39398;48.382;9.802;2024-01-15T09:43:52;92528.72;;;-0.48;63.30
53522;BME280;39398;48.382;9.802;2024-01-15T09:48:53;92523.63;;;-0.48;62.32
53522;BME280;39398;48.382;9.802;2024-01-15T09:53:55;92524.16;;;-0.61;64.09
53522;BME280;39398;48.382;9.802;2024-01-15T09:58:58;92526.97;;;-0.79;60.77
53522;BME280;39398;48.382;9.802;2024-01-15T10:04:01;92523.72;;;-0.64;60.85
53522;BME280;39398;48.382;9.802;2024-01-15T10:09:03;92536.84;;;-0.76;60.44
53522;BME280;39398;48.382;9.802;2024-01-15T10:14:06;92530.25;;;-0.93;60.17
53522;BME280;39398;48.382;9.802;2024-01-15T10:19:08;92520.75;;;-0.76;61.39
53522;BME280;39398;48.382;9.802;2024-01-15T10:24:10;92507.16;;;-0.68;60.27
53522;BME280;39398;48.382;9.802;2024-01-15T10:29:14;92489.25;;;-0.60;60.08
53522;BME280;39398;48.382;9.802;2024-01-15T10:34:16;92485.94;;;-0.46;60.49
53522;BME280;39398;48.382;9.802;2024-01-15T10:39:18;92466.13;;;-0.36;58.74
53522;BME280;39398;48.382;9.802;2024-01-15T10:44:21;92464.72;;;-0.24;59.86
53522;BME280;39398;48.382;9.802;2024-01-15T10:49:22;92470.50;;;-0.07;59.59
53522;BME280;39398;48.382;9.802;2024-01-15T10:54:26;92466.88;;;-0.13;59.35
53522;BME280;39398;48.382;9.802;2024-01-15T10:59:30;92466.50;;;-0.24;60.02
53522;BME280;39398;48.382;9.802;2024-01-15T11:04:32;92473.91;;;-0.15;59.85
53522;BME280;39398;48.382;9.802;2024-01-15T11:09:34;92462.00;;;-0.22;60.29
53522;BME280;39398;48.382;9.802;2024-01-15T11:14:40;92450.09;;;-0.30;60.38
53522;BME280;39398;48.382;9.802;2024-01-15T11:19:43;92455.53;;;-0.33;60.61
53522;BME280;39398;48.382;9.802;2024-01-15T11:24:45;92457.41;;;-0.27;61.10
53522;BME280;39398;48.382;9.802;2024-01-15T11:30:02;92451.88;;;-0.16;61.20
53522;BME280;39398;48.382;9.802;2024-01-15T11:35:05;92448.47;;;-0.08;60.42
53522;BME280;39398;48.382;9.802;2024-01-15T11:40:07;92449.78;;;-0.12;59.99
53522;BME280;39398;48.382;9.802;2024-01-15T11:45:10;92449.06;;;-0.21;60.82
53522;BME280;39398;48.382;9.802;2024-01-15T11:50:12;92456.09;;;-0.23;59.59
53522;BME280;39398;48.382;9.802;2024-01-15T11:55:18;92455.28;;;-0.38;60.01
53522;BME280;39398;48.382;9.802;2024-01-15T12:00:22;92457.78;;;-0.53;60.47
53522;BME280;39398;48.382;9.802;2024-01-15T12:05:25;92460.75;;;-0.49;61.08
53522;BME280;39398;48.382;9.802;2024-01-15T12:10:27;92445.34;;;-0.56;61.50
53522;BME280;39398;48.382;9.802;2024-01-15T12:15:30;92431.03;;;-0.42;61.16
53522;BME280;39398;48.382;9.802;2024-01-15T12:20:32;92431.25;;;-0.29;61.49
53522;BME280;39398;48.382;9.802;2024-01-15T12:25:34;92430.00;;;-0.33;62.29
53522;BME280;39398;48.382;9.802;2024-01-15T12:30:37;92431.03;;;-0.42;62.66
53522;BME280;39398;48.382;9.802;2024-01-15T12:35:39;92439.41;;;-0.33;64.18
53522;BME280;39398;48.382;9.802;2024-01-15T12:40:43;92432.56;;;-0.33;64.62
53522;BME280;39398;48.382;9.802;2024-01-15T12:45:49;92438.03;;;-0.36;63.22
53522;BME280;39398;48.382;9.802;2024-01-15T12:50:52;92432.63;;;-0.41;63.12
53522;BME280;39398;48.382;9.802;2024-01-15T12:55:53;92424.69;;;-0.46;61.79
53522;BME280;39398;48.382;9.802;2024-01-15T13:00:57;92416.06;;;-0.45;62.57
53522;BME280;39398;48.382;9.802;2024-01-15T13:05:58;92408.91;;;-0.50;62.45
53522;BME280;39398;48.382;9.802;2024-01-15T13:11:00;92412.97;;;-0.55;63.50
53522;BME280;39398;48.382;9.802;2024-01-15T13:16:04;92405.41;;;-0.49;63.71
53522;BME280;39398;48.382;9.802;2024-01-15T13:21:05;92399.06;;;-0.53;63.03
53522;BME280;39398;48.382;9.802;2024-01-15T13:26:07;92418.44;;;-0.66;63.46
53522;BME280;39398;48.382;9.802;2024-01-15T13:31:10;92407.66;;;-0.68;64.32
53522;BME280;39398;48.382;9.802;2024-01-15T13:36:12;92414.84;;;-0.72;65.53
53522;BME280;39398;48.382;9.802;2024-01-15T13:41:13;92434.91;;;-0.92;67.92
53522;BME280;39398;48.382;9.802;2024-01-15T13:46:16;92435.63;;;-1.06;69.58
53522;BME280;39398;48.382;9.802;2024-01-15T13:51:18;92444.84;;;-1.05;70.98
53522;BME280;39398;48.382;9.802;2024-01-15T13:56:20;92443.28;;;-1.06;70.51
53522;BME280;39398;48.382;9.802;2024-01-15T14:01:23;92453.81;;;-1.09;69.88
53522;BME280;39398;48.382;9.802;2024-01-15T14:06:25;92473.78;;;-1.21;72.14
53522;BME280;39398;48.382;9.802;2024-01-15T14:11:27;92478.41;;;-1.24;73.30
53522;BME280;39398;48.382;9.802;2024-01-15T14:16:30;92492.59;;;-1.30;75.48
53522;BME280;39398;48.382;9.802;2024-01-15T14:21:31;92477.19;;;-1.36;76.30
53522;BME280;39398;48.382;9.802;2024-01-15T14:26:33;92489.94;;;-1.45;76.30
53522;BME280;39398;48.382;9.802;2024-01-15T14:31:36;92491.81;;;-1.30;76.95
53522;BME280;39398;48.382;9.802;2024-01-15T14:36:38;92491.72;;;-1.45;78.61
53522;BME280;39398;48.382;9.802;2024-01-15T14:41:39;92510.66;;;-1.48;79.61
53522;BME280;39398;48.382;9.802;2024-01-15T14:46:42;92515.81;;;-1.64;80.42
53522;BME280;39398;48.382;9.802;2024-01-15T14:51:44;92524.72;;;-1.60;81.29
53522;BME280;39398;48.382;9.802;2024-01-15T14:56:45;92532.03;;;-1.57;80.62
53522;BME280;39398;48.382;9.802;2024-01-15T15:01:49;92530.44;;;-1.58;81.13
53522;BME280;39398;48.382;9.802;2024-01-15T15:06:51;92533.63;;;-1.64;81.46
53522;BME280;39398;48.382;9.802;2024-01-15T15:11:53;92539.88;;;-1.74;82.41
53522;BME280;39398;48.382;9.802;2024-01-15T15:16:56;92547.66;;;-1.76;82.49
53522;BME280;39398;48.382;9.802;2024-01-15T15:21:57;92551.66;;;-1.73;82.17
53522;BME280;39398;48.382;9.802;2024-01-15T15:26:59;92557.38;;;-1.80;82.00
53522;BME280;39398;48.382;9.802;2024-01-15T15:32:02;92569.03;;;-1.85;82.85
53522;BME280;39398;48.382;9.802;2024-01-15T15:37:04;92577.94;;;-1.89;84.40
53522;BME280;39398;48.382;9.802;2024-01-15T15:42:05;92598.94;;;-1.95;84.54
53522;BME280;39398;48.382;9.802;2024-01-15T15:47:08;92600.84;;;-1.97;85.11
53522;BME280;39398;48.382;9.802;2024-01-15T15:52:10;92607.22;;;-2.01;84.74
53522;BME280;39398;48.382;9.802;2024-01-15T15:57:12;92618.97;;;-2.00;84.97
53522;BME280;39398;48.382;9.802;2024-01-15T16:02:15;92630.44;;;-2.04;85.02
53522;BME280;39398;48.382;9.802;2024-01-15T16:07:16;92646.34;;;-2.11;84.46
53522;BME280;39398;48.382;9.802;2024-01-15T16:12:18;92654.94;;;-2.12;83.09
53522;BME280;39398;48.382;9.802;2024-01-15T16:17:21;92669.22;;;-2.27;77.74
53522;BME280;39398;48.382;9.802;2024-01-15T16:22:43;92673.59;;;-2.45;74.72
53522;BME280;39398;48.382;9.802;2024-01-15T16:28:05;92674.53;;;-2.54;75.49
53522;BME280;39398;48.382;9.802;2024-01-15T16:33:08;92661.78;;;-2.62;74.96
53522;BME280;39398;48.382;9.802;2024-01-15T16:38:09;92673.53;;;-2.69;73.75
53522;BME280;39398;48.382;9.802;2024-01-15T16:43:11;92684.94;;;-2.73;73.61
53522;BME280;39398;48.382;9.802;2024-01-15T16:48:14;92710.97;;;-2.79;73.81
53522;BME280;39398;48.382;9.802;2024-01-15T16:53:16;92703.50;;;-2.81;73.38
53522;BME280;39398;48.382;9.802;2024-01-15T16:58:17;92703.00;;;-2.85;73.17
53522;BME280;39398;48.382;9.802;2024-01-15T17:03:20;92726.16;;;-2.96;72.51
53522;BME280;39398;48.382;9.802;2024-01-15T17:08:22;92731.19;;;-3.04;72.76
53522;BME280;39398;48.382;9.802;2024-01-15T17:13:24;92736.22;;;-3.12;73.94
53522;BME280;39398;48.382;9.802;2024-01-15T17:18:27;92744.78;;;-3.13;72.45
53522;BME280;39398;48.382;9.802;2024-01-15T17:23:29;92768.44;;;-3.12;71.17
53522;BME280;39398;48.382;9.802;2024-01-15T17:28:30;92764.75;;;-3.18;72.44
53522;BME280;39398;48.382;9.802;2024-01-15T17:33:33;92776.47;;;-3.25;71.76
53522;BME280;39398;48.382;9.802;2024-01-15T17:38:35;92771.63;;;-3.36;72.25
53522;BME280;39398;48.382;9.802;2024-01-15T17:43:37;92780.47;;;-3.40;71.80
53522;BME280;39398;48.382;9.802;2024-01-15T17:48:40;92787.84;;;-3.29;72.33
53522;BME280;39398;48.382;9.802;2024-01-15T17:53:41;92800.13;;;-3.42;72.17
53522;BME280;39398;48.382;9.802;2024-01-15T17:58:43;92807.09;;;-3.44;73.12
53522;BME280;39398;48.382;9.802;2024-01-15T18:03:46;92808.84;;;-3.45;71.86
53522;BME280;39398;48.382;9.802;2024-01-15T18:08:48;92809.63;;;-3.44;71.90
53522;BME280;39398;48.382;9.802;2024-01-15T18:13:50;92818.56;;;-3.40;72.27
53522;BME280;39398;48.382;9.802;2024-01-15T18:18:53;92820.53;;;-3.34;72.45
53522;BME280;39398;48.382;9.802;2024-01-15T18:23:55;92822.25;;;-3.35;72.78
53522;BME280;39398;48.382;9.802;2024-01-15T18:28:56;92821.97;;;-3.32;72.86
53522;BME280;39398;48.382;9.802;2024-01-15T18:33:59;92842.59;;;-3.35;73.19
53522;BME280;39398;48.382;9.802;2024-01-15T18:39:01;92846.25;;;-3.37;73.68
53522;BME280;39398;48.382;9.802;2024-01-15T18:44:03;92856.91;;;-3.34;72.58
53522;BME280;39398;48.382;9.802;2024-01-15T18:49:06;92863.44;;;-3.31;73.14
53522;BME280;39398;48.382;9.802;2024-01-15T18:54:08;92873.59;;;-3.31;73.59
53522;BME280;39398;48.382;9.802;2024-01-15T18:59:09;92872.00;;;-3.32;73.52
53522;BME280;39398;48.382;9.802;2024-01-15T19:04:13;92872.34;;;-3.45;72.57
53522;BME280;39398;48.382;9.802;2024-01-15T19:09:14;92885.78;;;-3.53;72.73
53522;BME280;39398;48.382;9.802;2024-01-15T19:14:16;92887.22;;;-3.50;72.07
53522;BME280;39398;48.382;9.802;2024-01-15T19:19:19;92882.06;;;-3.58;72.17
53522;BME280;39398;48.382;9.802;2024-01-15T19:24:21;92882.41;;;-3.71;72.08
53522;BME280;39398;48.382;9.802;2024-01-15T19:29:22;92886.38;;;-3.68;70.10
53522;BME280;39398;48.382;9.802;2024-01-15T19:34:25;92909.00;;;-3.75;70.28
53522;BME280;39398;48.382;9.802;2024-01-15T19:39:27;92920.44;;;-3.89;70.88
53522;BME280;39398;48.382;9.802;2024-01-15T19:44:28;92914.84;;;-3.92;69.87
53522;BME280;39398;48.382;9.802;2024-01-15T19:49:32;92920.44;;;-3.89;70.20
53522;BME280;39398;48.382;9.802;2024-01-15T19:54:34;92919.41;;;-4.05;70.49
53522;BME280;39398;48.382;9.802;2024-01-15T19:59:35;92928.47;;;-3.93;68.95
53522;BME280;39398;48.382;9.802;2024-01-15T20:04:38;92928.47;;;-3.93;69.22
53522;BME280;39398;48.382;9.802;2024-01-15T20:09:40;92932.47;;;-4.00;69.00
53522;BME280;39398;48.382;9.802;2024-01-15T20:14:41;92948.94;;;-4.04;69.45
53522;BME280;39398;48.382;9.802;2024-01-15T20:19:44;92950.38;;;-4.02;69.70
53522;BME280;39398;48.382;9.802;2024-01-15T20:24:47;92948.22;;;-3.87;70.34
53522;BME280;39398;48.382;9.802;2024-01-15T20:29:48;92955.94;;;-3.79;70.50
53522;BME280;39398;48.382;9.802;2024-01-15T20:34:52;92956.06;;;-3.80;70.03
53522;BME280;39398;48.382;9.802;2024-01-15T20:39:53;92958.06;;;-3.84;70.15
53522;BME280;39398;48.382;9.802;2024-01-15T20:44:55;92956.31;;;-3.74;69.24
53522;BME280;39398;48.382;9.802;2024-01-15T20:49:58;92973.72;;;-3.79;69.49
53522;BME280;39398;48.382;9.802;2024-01-15T20:54:59;92980.00;;;-3.83;69.54
53522;BME280;39398;48.382;9.802;2024-01-15T21:00:01;92984.13;;;-3.82;70.26
53522;BME280;39398;48.382;9.802;2024-01-15T21:05:05;92986.09;;;-3.66;70.28
53522;BME280;39398;48.382;9.802;2024-01-15T21:10:07;92998.38;;;-3.62;69.85
53522;BME280;39398;48.382;9.802;2024-01-15T21:15:09;93011.47;;;-3.57;70.21
53522;BME280;39398;48.382;9.802;2024-01-15T21:20:12;93017.88;;;-3.53;68.93
53522;BME280;39398;48.382;9.802;2024-01-15T21:25:14;93022.66;;;-3.49;69.38
53522;BME280;39398;48.382;9.802;2024-01-15T21:30:16;93026.44;;;-3.54;69.50
53522;BME280;39398;48.382;9.802;2024-01-15T21:35:19;93033.75;;;-3.51;69.11
53522;BME280;39398;48.382;9.802;2024-01-15T21:40:20;93030.94;;;-3.47;69.46
53522;BME280;39398;48.382;9.802;2024-01-15T21:45:22;93036.44;;;-3.42;69.94
53522;BME280;39398;48.382;9.802;2024-01-15T21:50:25;93030.41;;;-3.41;69.28
53522;BME280;39398;48.382;9.802;2024-01-15T21:55:27;93032.94;;;-3.41;69.66
53522;BME280;39398;48.382;9.802;2024-01-15T22:00:28;93039.50;;;-3.39;69.22
53522;BME280;39398;48.382;9.802;2024-01-15T22:05:31;93038.41;;;-3.36;69.59
53522;BME280;39398;48.382;9.802;2024-01-15T22:10:33;93039.22;;;-3.36;69.23
53522;BME280;39398;48.382;9.802;2024-01-15T22:15:34;93054.88;;;-3.40;69.38
53522;BME280;39398;48.382;9.802;2024-01-15T22:20:37;93049.53;;;-3.37;69.28
53522;BME280;39398;48.382;9.802;2024-01-15T22:25:39;93050.19;;;-3.35;69.02
53522;BME280;39398;48.382;9.802;2024-01-15T22:30:41;93052.06;;;-3.37;68.96
53522;BME280;39398;48.382;9.802;2024-01-15T22:35:44;93063.84;;;-3.36;68.91
53522;BME280;39398;48.382;9.802;2024-01-15T22:40:46;93068.91;;;-3.36;68.71
53522;BME280;39398;48.382;9.802;2024-01-15T22:45:47;93075.59;;;-3.35;68.65
53522;BME280;39398;48.382;9.802;2024-01-15T22:50:50;93081.34;;;-3.43;67.76
53522;BME280;39398;48.382;9.802;2024-01-15T22:55:52;93083.84;;;-3.33;68.46
53522;BME280;39398;48.382;9.802;2024-01-15T23:00:54;93086.00;;;-3.29;68.48
53522;BME280;39398;48.382;9.802;2024-01-15T23:05:57;93089.75;;;-3.33;68.09
53522;BME280;39398;48.382;9.802;2024-01-15T23:10:58;93092.06;;;-3.39;68.29
53522;BME280;39398;48.382;9.802;2024-01-15T23:16:00;93095.75;;;-3.34;68.43
53522;BME280;39398;48.382;9.802;2024-01-15T23:21:03;93088.94;;;-3.33;67.36
53522;BME280;39398;48.382;9.802;2024-01-15T23:26:05;93102.59;;;-3.34;67.87
53522;BME280;39398;48.382;9.802;2024-01-15T23:31:07;93093.53;;;-3.46;67.03
53522;BME280;39398;48.382;9.802;2024-01-15T23:36:10;93098.88;;;-3.49;67.41
53522;BME280;39398;48.382;9.802;2024-01-15T23:41:17;93102.66;;;-3.54;67.39
53522;BME280;39398;48.382;9.802;2024-01-15T23:46:18;93094.91;;;-3.62;66.83
53522;BME280;39398;48.382;9.802;2024-01-15T23:51:21;93097.03;;;-3.67;67.35
53522;BME280;39398;48.382;9.802;2024-01-15T23:56:23;93096.66;;;-3.72;67.94
